Terminal Aerodrome Forecast
Issued by NWS Jackson, MS

Home | Current Version | Previous Version | Text Only | Print | Product List | Glossary On
Versions: 1 2 3 4 5 6 7 8 9 10 11 12 13 14 15 16
792
FTUS44 KMEG 201125
TAFTUP
TAF
KTUP 201125Z 2012/2112 00000KT P6SM SKC
     FM201600 11005KT P6SM SCT050 SCT250
     FM210100 00000KT P6SM SKC=

USA.gov is the U.S. government's official web portal to all federal, state and local government web resources and services.